Norway, South Carolina
Current Conditions -  °F | °C
As of 10:53 AM on Friday 28 Nov 2014 (Local Time) from KOGB Reporting Station
Clear Clear  
Wind Chill: 38°   Ceiling: Unl
Heat Index: 43°   Visibility: 10mi
Dew Point: 21°   Wind: 8mph
Humidity: 42%   Direction: 60°ENE
Pressure: 30.4"   Gusts: NA
Location:  33.45°N, 81.13°W
Report Text: KOGB 281553Z AUTO 06007KT 10SM CLR 06/M06 A3040 RMK AO2 SLP295 T00611061
Loading
Personal Weather Stations






























Interactive Weather Map New forecast layout! Learn more

10-Day Weather Forecast

Advertisements
Track Severe Weather on mobile